LHPP/PEV METAR and TAF weather

Enter ICAO airport designator
Station Type Date Time Source
LHPP METAR 2022/12/05 13:45 UTC NOAA

LHPP 051345Z AUTO 11004KT 070V140 CAVOK 08/06 Q1021


Station Type Date Time Source
LHPP Decoded METAR 2022/12/05 13:45 UTC NOAA

Pecs / Pogany, Hungary (LHPP) 46-06N 018-14E 203M
Dec 05, 2022 - 08:45 AM EST / 2022.12.05 1345 UTC
Wind: from the ESE (110 degrees) at 5 MPH (4 KT) (direction variable):0
Visibility: greater than 7 mile(s):0
Temperature: 46 F (8 C)
Dew Point: 42 F (6 C)
Relative Humidity: 87%
Pressure (altimeter): 30.15 in. Hg (1021 hPa)
ob: LHPP 051345Z AUTO 11004KT 070V140 CAVOK 08/06 Q1021
cycle: 14

Station Type Date Time Source
LHPP TAF 2017/08/21 15:50 UTC NOAA

TAF LHPP 211700Z 2115/2214 CNL

Example: see airport list